Date,TemperatureHighF,TemperatureAvgF,TemperatureLowF,DewpointHighF,DewpointAvgF,DewpointLowF,HumidityHigh,HumidityAvg,HumidityLow,PressureMaxIn,PressureMinIn,WindSpeedMaxMPH,WindSpeedAvgMPH,GustSpeedMaxMPH,PrecipitationSumIn
2013-1-4,25,12,-3,-100,-100,-100,0,0,100,0.00,40.00,0,-999,0,0.00
2013-1-5,32,13,-7,-100,-100,-100,0,0,100,0.00,40.00,0,-999,0,0.00
2013-1-6,42,25,10,-100,-100,-100,0,0,100,0.00,40.00,0,-999,0,0.00
2013-1-7,37,25,14,-100,-100,-100,0,0,100,0.00,40.00,0,-999,0,0.00
2013-1-8,40,25,6,-100,-100,-100,0,0,100,0.00,40.00,0,-999,0,0.00
2013-1-9,43,26,6,-100,-100,-100,0,0,100,0.00,40.00,0,-999,0,0.00
2013-1-10,40,28,15,-100,-100,-100,0,0,100,0.00,40.00,0,-999,0,0.00
2013-1-11,29,17,-7,-100,-100,-100,0,0,100,0.00,40.00,0,-999,0,0.10
2013-1-12,16,3,-14,-100,-100,-100,0,0,100,0.00,40.00,0,-999,0,0.00
2013-1-13,12,4,-11,-100,-100,-100,0,0,100,0.00,40.00,0,-999,0,0.00
2013-1-18,40,26,12,-100,-100,-100,0,0,100,0.00,40.00,0,-999,0,0.00
2013-1-19,40,22,7,-100,-100,-100,0,0,100,0.00,40.00,0,-999,0,0.00
2013-1-20,39,28,9,-100,-100,-100,0,0,100,0.00,40.00,0,-999,0,0.00
2013-1-21,40,24,6,-100,-100,-100,0,0,100,0.00,40.00,0,-999,0,0.00
2013-1-22,45,26,7,-100,-100,-100,0,0,100,0.00,40.00,0,-999,0,0.00
2013-1-23,48,32,10,-100,-100,-100,0,0,100,0.00,40.00,0,-999,0,0.00
2013-1-24,46,34,19,-100,-100,-100,0,0,100,0.00,40.00,0,-999,0,0.00
2013-1-25,41,35,28,-100,-100,-100,0,0,100,0.00,40.00,0,-999,0,0.00
2013-1-26,34,33,32,-100,-100,-100,0,0,100,0.00,40.00,0,-999,0,0.00
2013-1-27,40,35,32,-100,-100,-100,0,0,100,0.00,40.00,0,-999,0,0.00
2013-1-28,34,28,20,-100,-100,-100,0,0,100,0.00,40.00,0,-999,0,0.00
2013-1-29,24,16,7,-100,-100,-100,0,0,100,0.00,40.00,0,-999,0,0.00
2013-1-30,27,18,4,-100,-100,-100,0,0,100,0.00,40.00,0,-999,0,0.00
2013-1-31,35,22,7,-100,-100,-100,0,0,100,0.00,40.00,0,-999,0,0.00
2013-2-1,36,21,7,-100,-100,-100,0,0,100,0.00,40.00,0,-999,0,0.00
2013-2-2,41,24,9,-100,-100,-100,0,0,100,0.00,40.00,0,-999,0,0.00
2013-2-3,43,28,20,-100,-100,-100,0,0,100,0.00,40.00,0,-999,0,0.00
2013-2-4,37,23,14,-100,-100,-100,0,0,100,0.00,40.00,0,-999,0,0.00
2013-2-5,43,23,9,-100,-100,-100,0,0,100,0.00,40.00,0,-999,0,0.00
2013-2-6,43,27,17,-100,-100,-100,0,0,100,0.00,40.00,0,-999,0,0.00
2013-2-7,42,26,14,-100,-100,-100,0,0,100,0.00,40.00,0,-999,0,0.10
2013-2-8,42,32,20,-100,-100,-100,0,0,100,0.00,40.00,0,-999,0,0.10
2013-2-9,26,20,9,-100,-100,-100,0,0,100,0.00,40.00,0,-999,0,0.00
2013-2-10,27,17,9,-100,-100,-100,0,0,100,0.00,40.00,0,-999,0,0.00
2013-2-11,30,18,3,-100,-100,-100,0,0,100,0.00,40.00,0,-999,0,0.00
2013-2-12,25,7,-5,-100,-100,-100,0,0,100,0.00,40.00,0,-999,0,0.00
2013-2-13,33,13,-3,-100,-100,-100,0,0,100,0.00,40.00,0,-999,0,0.00
2013-2-14,36,16,4,-100,-100,-100,0,0,100,0.00,40.00,0,-999,0,0.00
2013-2-15,40,20,1,-100,-100,-100,0,0,100,0.00,40.00,0,-999,0,0.00
2013-2-16,41,24,11,-100,-100,-100,0,0,100,0.00,40.00,0,-999,0,0.00
2013-2-17,45,27,12,-100,-100,-100,0,0,100,0.00,40.00,0,-999,0,0.00
2013-2-18,37,24,14,-100,-100,-100,0,0,100,0.00,40.00,0,-999,0,0.00
2013-2-19,42,22,4,-100,-100,-100,0,0,100,0.00,40.00,0,-999,0,0.00
2013-2-20,29,25,19,-100,-100,-100,0,0,100,0.00,40.00,0,-999,0,0.00
2013-2-21,33,20,7,-100,-100,-100,0,0,100,0.00,40.00,0,-999,0,0.00
2013-2-22,24,13,6,-100,-100,-100,0,0,100,0.00,40.00,0,-999,0,0.00
2013-2-23,31,16,-3,-100,-100,-100,0,0,100,0.00,40.00,0,-999,0,0.00
2013-2-24,31,17,2,-100,-100,-100,0,0,100,0.00,40.00,0,-999,0,0.00
2013-2-25,35,16,-2,-100,-100,-100,0,0,100,0.00,40.00,0,-999,0,0.00
2013-2-26,27,13,2,-100,-100,-100,0,0,100,0.00,40.00,0,-999,0,0.00
2013-2-27,31,17,-5,-100,-100,-100,0,0,100,0.00,40.00,0,-999,0,0.00
2013-2-28,36,22,3,-100,-100,-100,0,0,100,0.00,40.00,0,-999,0,0.00
2013-3-1,44,29,7,-100,-100,-100,0,0,100,0.00,40.00,0,-999,0,0.00
2013-3-2,50,38,16,-100,-100,-100,0,0,100,0.00,40.00,0,-999,0,0.00
2013-3-3,46,38,20,-100,-100,-100,0,0,100,0.00,40.00,0,-999,0,0.00
2013-3-4,43,36,28,-100,-100,-100,0,0,100,0.00,40.00,0,-999,0,0.10
2013-3-5,46,31,14,-100,-100,-100,0,0,100,0.00,40.00,0,-999,0,0.00
2013-3-6,49,37,19,-100,-100,-100,0,0,100,0.00,40.00,0,-999,0,0.00
2013-3-7,52,38,19,-100,-100,-100,0,0,100,0.00,40.00,0,-999,0,0.00
2013-3-8,36,31,27,-100,-100,-100,0,0,100,0.00,40.00,0,-999,0,0.00
2013-3-9,30,24,8,-100,-100,-100,0,0,100,0.00,40.00,0,-999,0,0.00
2013-3-10,40,26,5,-100,-100,-100,0,0,100,0.00,40.00,0,-999,0,0.00
2013-3-11,43,32,11,-100,-100,-100,0,0,100,0.00,40.00,0,-999,0,0.00
2013-3-12,50,36,20,-100,-100,-100,0,0,100,0.00,40.00,0,-999,0,0.00
2013-3-13,58,37,23,-100,-100,-100,0,0,100,0.00,40.00,0,-999,0,0.00
2013-3-14,61,46,27,-100,-100,-100,0,0,100,0.00,40.00,0,-999,0,0.00
2013-3-15,61,44,29,-100,-100,-100,0,0,100,0.00,40.00,0,-999,0,0.00
2013-3-16,49,38,32,-100,-100,-100,0,0,100,0.00,40.00,0,-999,0,0.00
2013-3-17,47,37,28,-100,-100,-100,0,0,100,0.00,40.00,0,-999,0,0.00
2013-3-18,45,38,34,-100,-100,-100,0,0,100,0.00,40.00,0,-999,0,0.00
2013-3-19,52,39,28,-100,-100,-100,0,0,100,0.00,40.00,0,-999,0,0.00
2013-3-20,44,34,23,-100,-100,-100,0,0,100,0.00,40.00,0,-999,0,0.00
2013-3-21,48,38,31,-100,-100,-100,0,0,100,0.00,40.00,0,-999,0,0.00
2013-3-22,46,33,22,-100,-100,-100,0,0,100,0.00,40.00,0,-999,0,0.00
2013-3-23,34,24,17,-100,-100,-100,0,0,100,0.00,40.00,0,-999,0,0.00
2013-3-24,34,19,8,-100,-100,-100,0,0,100,0.00,40.00,0,-999,0,0.00
2013-3-25,37,24,11,-100,-100,-100,0,0,100,0.00,40.00,0,-999,0,0.00
2013-3-26,49,31,22,-100,-100,-100,0,0,100,0.00,40.00,0,-999,0,0.00
2013-3-27,54,42,32,-100,-100,-100,0,0,100,0.00,40.00,0,-999,0,0.00
2013-3-28,56,42,32,-100,-100,-100,0,0,100,0.00,40.00,0,-999,0,0.00
2013-3-29,56,41,31,-100,-100,-100,0,0,100,0.00,40.00,0,-999,0,0.00
2013-3-30,61,46,31,-100,-100,-100,0,0,100,0.00,40.00,0,-999,0,0.00
2013-3-31,60,47,36,-100,-100,-100,0,0,100,0.00,40.00,0,-999,0,0.00
2013-4-1,59,48,39,-100,-100,-100,0,0,100,0.00,40.00,0,-999,0,0.00
2013-4-2,50,39,32,-100,-100,-100,0,0,100,0.00,40.00,0,-999,0,0.00
2013-4-3,56,41,28,-100,-100,-100,0,0,100,0.00,40.00,0,-999,0,0.00
2013-4-4,60,41,29,-100,-100,-100,0,0,100,0.00,40.00,0,-999,0,0.00
2013-4-5,56,47,36,-100,-100,-100,0,0,100,0.00,40.00,0,-999,0,0.00
2013-4-6,60,45,34,-100,-100,-100,0,0,100,0.00,40.00,0,-999,0,0.00
2013-4-7,56,46,34,-100,-100,-100,0,0,100,0.00,40.00,0,-999,0,0.00
2013-4-8,53,40,34,-100,-100,-100,0,0,100,0.00,40.00,0,-999,0,0.00
2013-4-9,36,32,31,-100,-100,-100,0,0,100,0.00,40.00,0,-999,0,0.00
2013-4-10,30,28,23,-100,-100,-100,0,0,100,0.00,40.00,0,-999,0,0.00
2013-4-11,43,31,19,-100,-100,-100,0,0,100,0.00,40.00,0,-999,0,0.00
2013-4-12,54,39,29,-100,-100,-100,0,0,100,0.00,40.00,0,-999,0,0.00
2013-4-13,57,47,34,-100,-100,-100,0,0,100,0.00,40.00,0,-999,0,0.00
2013-4-14,53,47,37,-100,-100,-100,0,0,100,0.00,40.00,0,-999,0,0.00
2013-4-15,55,46,40,-100,-100,-100,0,0,100,0.00,40.00,0,-999,0,0.00
2013-4-16,58,48,40,-100,-100,-100,0,0,100,0.00,40.00,0,-999,0,0.00
2013-4-17,45,39,31,-100,-100,-100,0,0,100,0.00,40.00,0,-999,0,0.00
2013-4-18,30,26,16,-100,-100,-100,0,0,100,0.00,40.00,0,-999,0,0.00
2013-4-19,39,27,17,-100,-100,-100,0,0,100,0.00,40.00,0,-999,0,0.00
2013-4-20,46,39,32,-100,-100,-100,0,0,100,0.00,40.00,0,-999,0,0.00
2013-4-21,57,41,28,-100,-100,-100,0,0,100,0.00,40.00,0,-999,0,0.00
2013-4-22,59,47,39,-100,-100,-100,0,0,100,0.00,40.00,0,-999,0,0.00
2013-4-23,49,44,39,-100,-100,-100,0,0,100,0.00,40.00,0,-999,0,0.00
2013-4-24,56,42,29,-100,-100,-100,0,0,100,0.00,40.00,0,-999,0,0.00
2013-4-25,61,52,39,-100,-100,-100,0,0,100,0.00,40.00,0,-999,0,0.00
2013-4-26,56,46,36,-100,-100,-100,0,0,100,0.00,40.00,0,-999,0,0.00
2013-4-27,63,49,37,-100,-100,-100,0,0,100,0.00,40.00,0,-999,0,0.00
2013-4-28,68,52,39,-100,-100,-100,0,0,100,0.00,40.00,0,-999,0,0.00
2013-4-29,67,52,43,-100,-100,-100,0,0,100,0.00,40.00,0,-999,0,0.00
2013-4-30,68,64,60,-100,-100,-100,0,0,100,0.00,40.00,0,-999,0,0.00
2013-5-1,57,51,42,-100,-100,-100,0,0,100,0.00,40.00,0,-999,0,0.00
2013-5-2,53,42,37,-100,-100,-100,0,0,100,0.00,40.00,0,-999,0,0.00
2013-5-3,58,45,36,-100,-100,-100,0,0,100,0.00,40.00,0,-999,0,0.00
2013-5-4,60,47,36,-100,-100,-100,0,0,100,0.00,40.00,0,-999,0,0.00
2013-5-5,57,52,49,-100,-100,-100,0,0,100,0.00,40.00,0,-999,0,0.00
2013-5-6,50,45,42,-100,-100,-100,0,0,100,0.00,40.00,0,-999,0,0.00
2013-5-7,57,46,39,-100,-100,-100,0,0,100,0.00,40.00,0,-999,0,0.00
2013-5-8,46,42,37,-100,-100,-100,0,0,100,0.00,40.00,0,-999,0,0.00
2013-5-9,47,41,36,-100,-100,-100,0,0,100,0.00,40.00,0,-999,0,0.00
2013-5-10,60,44,36,-100,-100,-100,0,0,100,0.00,40.00,0,-999,0,0.00
2013-5-11,57,44,37,-100,-100,-100,0,0,100,0.00,40.00,0,-999,0,0.00
2013-5-12,64,52,42,-100,-100,-100,0,0,100,0.00,40.00,0,-999,0,0.00
2013-5-13,67,52,44,-100,-100,-100,0,0,100,0.00,40.00,0,-999,0,0.00
2013-5-14,62,54,47,-100,-100,-100,0,0,100,0.00,40.00,0,-999,0,0.00
2013-5-15,67,55,46,-100,-100,-100,0,0,100,0.00,40.00,0,-999,0,0.00
2013-5-16,72,56,43,-100,-100,-100,0,0,100,0.00,40.00,0,-999,0,0.00
2013-5-17,69,56,43,-100,-100,-100,0,0,100,0.00,40.00,0,-999,0,0.00
2013-5-18,69,54,44,-100,-100,-100,0,0,100,0.00,40.00,0,-999,0,0.00
2013-5-19,53,48,44,-100,-100,-100,0,0,100,0.00,40.00,0,-999,0,0.00
2013-5-20,60,46,38,-100,-100,-100,0,0,100,0.00,40.00,0,-999,0,0.00
2013-5-21,64,54,37,-100,-100,-100,0,0,100,0.00,40.00,0,-999,0,0.00
2013-5-22,69,55,41,-100,-100,-100,0,0,100,0.00,40.00,0,-999,0,0.00
2013-5-23,74,60,43,-100,-100,-100,0,0,100,0.00,40.00,0,-999,0,0.00
2013-5-24,70,60,44,-100,-100,-100,0,0,100,0.00,40.00,0,-999,0,0.00
2013-5-25,70,56,43,-100,-100,-100,0,0,100,0.00,40.00,0,-999,0,0.00
2013-5-26,69,55,44,-100,-100,-100,0,0,100,0.00,40.00,0,-999,0,0.00
2013-5-27,69,54,39,-100,-100,-100,0,0,100,0.00,40.00,0,-999,0,0.00
2013-5-28,67,52,41,-100,-100,-100,0,0,100,0.00,40.00,0,-999,0,0.00
2013-5-29,61,52,43,-100,-100,-100,0,0,100,0.00,40.00,0,-999,0,0.00
2013-5-30,46,44,42,-100,-100,-100,0,0,100,0.00,40.00,0,-999,0,0.00
2013-5-31,67,63,56,-100,-100,-100,0,0,100,0.00,40.00,0,-999,0,0.00
2013-6-1,70,54,35,-100,-100,-100,0,0,100,0.00,40.00,0,-999,0,0.00
2013-6-2,75,58,43,-100,-100,-100,0,0,100,0.00,40.00,0,-999,0,0.00
2013-6-3,72,60,47,-100,-100,-100,0,0,100,0.00,40.00,0,-999,0,0.00
2013-6-4,78,63,47,-100,-100,-100,0,0,100,0.00,40.00,0,-999,0,0.00
2013-6-5,77,64,52,-100,-100,-100,0,0,100,0.00,40.00,0,-999,0,0.00
2013-6-6,74,59,49,-100,-100,-100,0,0,100,0.00,40.00,0,-999,0,0.00
2013-6-7,74,59,46,-100,-100,-100,0,0,100,0.00,40.00,0,-999,0,0.00
2013-6-8,83,65,47,-100,-100,-100,0,0,100,0.00,40.00,0,-999,0,0.00
2013-6-9,85,69,52,-100,-100,-100,0,0,100,0.00,40.00,0,-999,0,0.00
2013-6-10,86,69,49,-100,-100,-100,0,0,100,0.00,40.00,0,-999,0,0.00
2013-6-11,79,64,53,-100,-100,-100,0,0,100,0.00,40.00,0,-999,0,0.00
2013-6-12,81,68,52,-100,-100,-100,0,0,100,0.00,40.00,0,-999,0,0.00
2013-6-13,82,69,52,-100,-100,-100,0,0,100,0.00,40.00,0,-999,0,0.00
2013-6-14,78,64,55,-100,-100,-100,0,0,100,0.00,40.00,0,-999,0,0.00
2013-6-15,78,64,50,-100,-100,-100,0,0,100,0.00,40.00,0,-999,0,0.00
2013-6-16,78,59,47,-100,-100,-100,0,0,100,0.00,40.00,0,-999,0,0.00
2013-6-17,79,65,52,-100,-100,-100,0,0,100,0.00,40.00,0,-999,0,0.00
2013-6-18,78,65,49,-100,-100,-100,0,0,100,0.00,40.00,0,-999,0,0.00
2013-6-19,78,62,49,-100,-100,-100,0,0,100,0.00,40.00,0,-999,0,0.00
2013-6-20,70,57,49,-100,-100,-100,0,0,100,0.00,40.00,0,-999,0,0.00
2013-6-22,75,71,60,-100,-100,-100,0,0,100,0.00,40.00,0,-999,0,0.00
2013-6-23,75,66,47,-100,-100,-100,0,0,100,0.00,40.00,0,-999,0,0.00
2013-6-24,74,61,49,-100,-100,-100,0,0,100,0.00,40.00,0,-999,0,0.00
2013-6-25,78,63,52,-100,-100,-100,0,0,100,0.00,40.00,0,-999,0,0.00
2013-6-26,87,69,52,-100,-100,-100,0,0,100,0.00,40.00,0,-999,0,0.00
2013-6-27,88,75,58,-100,-100,-100,0,0,100,0.00,40.00,0,-999,0,0.00
2013-6-28,84,69,58,-100,-100,-100,0,0,100,0.00,40.00,0,-999,0,0.00
2013-6-29,79,66,60,-100,-100,-100,0,0,100,0.00,40.00,0,-999,0,0.00
2013-6-30,83,68,55,-100,-100,-100,0,0,100,0.00,40.00,0,-999,0,0.00
2013-7-1,83,66,52,-100,-100,-100,0,0,100,0.00,40.00,0,-999,0,0.00
2013-7-2,83,62,50,-100,-100,-100,0,0,100,0.00,40.00,0,-999,0,0.00
2013-7-3,81,65,49,-100,-100,-100,0,0,100,0.00,40.00,0,-999,0,0.00
2013-7-4,81,71,60,-100,-100,-100,0,0,100,0.00,40.00,0,-999,0,0.00
2013-7-5,78,67,58,-100,-100,-100,0,0,100,0.00,40.00,0,-999,0,0.00
2013-7-6,81,63,58,-100,-100,-100,0,0,100,0.00,40.00,0,-999,0,0.00
2013-7-7,85,69,58,-100,-100,-100,0,0,100,0.00,40.00,0,-999,0,0.00
2013-7-8,81,67,60,-100,-100,-100,0,0,100,0.00,40.00,0,-999,0,0.00
2013-7-9,81,67,58,-100,-100,-100,0,0,100,0.00,40.00,0,-999,0,0.00
2013-7-10,80,69,63,-100,-100,-100,0,0,100,0.00,40.00,0,-999,0,0.00
2013-7-11,80,65,56,-100,-100,-100,0,0,100,0.00,40.00,0,-999,0,0.00
2013-7-12,77,64,58,-100,-100,-100,0,0,100,0.00,40.00,0,-999,0,0.00
2013-7-13,81,68,56,-100,-100,-100,0,0,100,0.00,40.00,0,-999,0,0.00
2013-7-14,81,67,60,-100,-100,-100,0,0,100,0.00,40.00,0,-999,0,0.00
2013-7-15,74,64,58,-100,-100,-100,0,0,100,0.00,40.00,0,-999,0,0.00
2013-7-16,67,59,55,-100,-100,-100,0,0,100,0.00,40.00,0,-999,0,0.00
2013-7-17,78,63,55,-100,-100,-100,0,0,100,0.00,40.00,0,-999,0,0.00
2013-7-18,77,70,65,-100,-100,-100,0,0,100,0.00,40.00,0,-999,0,0.00
2013-7-19,75,65,55,-100,-100,-100,0,0,100,0.00,40.00,0,-999,0,0.00
2013-7-20,78,69,58,-100,-100,-100,0,0,100,0.00,40.00,0,-999,0,0.00
2013-7-21,76,63,55,-100,-100,-100,0,0,100,0.00,40.00,0,-999,0,0.00
2013-7-22,81,65,55,-100,-100,-100,0,0,100,0.00,40.00,0,-999,0,0.00
2013-7-23,85,70,58,-100,-100,-100,0,0,100,0.00,40.00,0,-999,0,0.00
2013-7-24,83,69,61,-100,-100,-100,0,0,100,0.00,40.00,0,-999,0,0.00
2013-7-25,80,65,55,-100,-100,-100,0,0,100,0.00,40.00,0,-999,0,0.00
2013-7-26,77,63,55,-100,-100,-100,0,0,100,0.00,40.00,0,-999,0,0.00
2013-7-27,78,62,53,-100,-100,-100,0,0,100,0.00,40.00,0,-999,0,0.00
2013-7-28,66,60,56,-100,-100,-100,0,0,100,0.00,40.00,0,-999,0,0.10
2013-7-29,75,63,55,-100,-100,-100,0,0,100,0.00,40.00,0,-999,0,0.10
2013-7-30,78,64,53,-100,-100,-100,0,0,100,0.00,40.00,0,-999,0,0.00
2013-7-31,83,72,60,-100,-100,-100,0,0,100,0.00,40.00,0,-999,0,0.00
2013-8-1,73,64,60,-100,-100,-100,0,0,100,0.00,40.00,0,-999,0,0.00
2013-8-2,81,66,55,-100,-100,-100,0,0,100,0.00,40.00,0,-999,0,0.00
2013-8-3,78,66,55,-100,-100,-100,0,0,100,0.00,40.00,0,-999,0,0.00
2013-8-4,80,67,56,-100,-100,-100,0,0,100,0.00,40.00,0,-999,0,0.10
2013-8-5,75,65,53,-100,-100,-100,0,0,100,0.00,40.00,0,-999,0,0.00
2013-8-6,70,62,55,-100,-100,-100,0,0,100,0.00,40.00,0,-999,0,0.00
2013-8-7,63,58,55,-100,-100,-100,0,0,100,0.00,40.00,0,-999,0,0.00
2013-8-8,59,55,52,-100,-100,-100,0,0,100,0.00,40.00,0,-999,0,0.00
2013-8-9,75,59,47,-100,-100,-100,0,0,100,0.00,40.00,0,-999,0,0.00
2013-8-10,71,59,52,-100,-100,-100,0,0,100,0.00,40.00,0,-999,0,0.10
2013-8-11,71,58,47,-100,-100,-100,0,0,100,0.00,40.00,0,-999,0,0.00
2013-8-12,74,61,52,-100,-100,-100,0,0,100,0.00,40.00,0,-999,0,0.00
2013-8-13,77,63,52,-100,-100,-100,0,0,100,0.00,40.00,0,-999,0,0.10
2013-8-14,77,65,55,-100,-100,-100,0,0,100,0.00,40.00,0,-999,0,0.00
2013-8-15,80,66,53,-100,-100,-100,0,0,100,0.00,40.00,0,-999,0,0.00
2013-8-16,83,68,56,-100,-100,-100,0,0,100,0.00,40.00,0,-999,0,0.00
2013-8-17,79,67,56,-100,-100,-100,0,0,100,0.00,40.00,0,-999,0,0.00
2013-8-18,75,64,52,-100,-100,-100,0,0,100,0.00,40.00,0,-999,0,0.00
2013-8-19,78,63,53,-100,-100,-100,0,0,100,0.00,40.00,0,-999,0,0.00
2013-8-20,81,66,58,-100,-100,-100,0,0,100,0.00,40.00,0,-999,0,0.00
2013-8-21,77,63,53,-100,-100,-100,0,0,100,0.00,40.00,0,-999,0,0.00
2013-8-22,81,66,56,-100,-100,-100,0,0,100,0.00,40.00,0,-999,0,0.00
2013-8-23,80,66,56,-100,-100,-100,0,0,100,0.00,40.00,0,-999,0,0.00
2013-8-24,70,61,56,-100,-100,-100,0,0,100,0.00,40.00,0,-999,0,0.00
2013-8-25,65,58,55,-100,-100,-100,0,0,100,0.00,40.00,0,-999,0,0.00
2013-8-26,74,63,56,-100,-100,-100,0,0,100,0.00,40.00,0,-999,0,0.00
2013-8-27,75,62,56,-100,-100,-100,0,0,100,0.00,40.00,0,-999,0,0.00
2013-8-28,81,75,67,-100,-100,-100,0,0,100,0.00,40.00,0,-999,0,0.00
2013-8-29,78,65,55,-100,-100,-100,0,0,100,0.00,40.00,0,-999,0,0.00
2013-8-30,81,68,58,-100,-100,-100,0,0,100,0.00,40.00,0,-999,0,0.00
2013-8-31,81,68,60,-100,-100,-100,0,0,100,0.00,40.00,0,-999,0,0.00
2013-9-1,81,68,58,-100,-100,-100,0,0,100,0.00,40.00,0,-999,0,0.00
2013-9-2,80,67,56,-100,-100,-100,0,0,100,0.00,40.00,0,-999,0,0.00
2013-9-3,74,64,56,-100,-100,-100,0,0,100,0.00,40.00,0,-999,0,0.00
2013-9-4,82,72,60,-100,-100,-100,0,0,100,0.00,40.00,0,-999,0,0.00
2013-9-5,80,68,56,-100,-100,-100,0,0,100,0.00,40.00,0,-999,0,0.00
2013-9-6,83,69,53,-100,-100,-100,0,0,100,0.00,40.00,0,-999,0,0.00
2013-9-7,81,69,55,-100,-100,-100,0,0,100,0.00,40.00,0,-999,0,0.00
2013-9-8,77,64,56,-100,-100,-100,0,0,100,0.00,40.00,0,-999,0,0.00
2013-9-9,73,62,52,-100,-100,-100,0,0,100,0.00,40.00,0,-999,0,0.00
2013-9-10,60,56,53,-100,-100,-100,0,0,100,0.00,40.00,0,-999,0,0.00
2013-9-11,67,58,52,-100,-100,-100,0,0,100,0.00,40.00,0,-999,0,0.00
2013-9-12,70,57,49,-100,-100,-100,0,0,100,0.00,40.00,0,-999,0,0.00
2013-9-13,66,58,52,-100,-100,-100,0,0,100,0.00,40.00,0,-999,0,0.00
2013-9-14,59,52,50,-100,-100,-100,0,0,100,0.00,40.00,0,-999,0,0.00
2013-9-15,67,55,47,-100,-100,-100,0,0,100,0.00,40.00,0,-999,0,0.00
2013-9-16,67,57,50,-100,-100,-100,0,0,100,0.00,40.00,0,-999,0,0.00
2013-9-17,68,59,53,-100,-100,-100,0,0,100,0.00,40.00,0,-999,0,0.00
2013-9-18,53,53,50,-100,-100,-100,0,0,100,0.00,40.00,0,-999,0,0.00
2013-9-19,67,55,46,-100,-100,-100,0,0,100,0.00,40.00,0,-999,0,0.00
2013-9-20,70,56,46,-100,-100,-100,0,0,100,0.00,40.00,0,-999,0,0.00
2013-9-21,71,58,47,-100,-100,-100,0,0,100,0.00,40.00,0,-999,0,0.10
2013-9-22,57,51,45,-100,-100,-100,0,0,100,0.00,40.00,0,-999,0,0.10
2013-9-23,62,50,41,-100,-100,-100,0,0,100,0.00,40.00,0,-999,0,0.00
2013-9-24,65,52,39,-100,-100,-100,0,0,100,0.00,40.00,0,-999,0,0.00
2013-9-25,68,54,42,-100,-100,-100,0,0,100,0.00,40.00,0,-999,0,0.10
2013-9-26,65,54,42,-100,-100,-100,0,0,100,0.00,40.00,0,-999,0,0.00
2013-9-27,56,45,34,-100,-100,-100,0,0,100,0.00,40.00,0,-999,0,0.00
2013-9-28,56,42,31,-100,-100,-100,0,0,100,0.00,40.00,0,-999,0,0.00
2013-9-29,64,49,32,-100,-100,-100,0,0,100,0.00,40.00,0,-999,0,0.00
2013-9-30,67,54,43,-100,-100,-100,0,0,100,0.00,40.00,0,-999,0,0.00
2013-10-1,67,59,51,-100,-100,-100,0,0,100,0.00,40.00,0,-999,0,0.00
2013-10-2,66,53,40,-100,-100,-100,0,0,100,0.00,40.00,0,-999,0,0.00
2013-10-3,60,50,40,-100,-100,-100,0,0,100,0.00,40.00,0,-999,0,0.00
2013-10-4,53,42,34,-100,-100,-100,0,0,100,0.00,40.00,0,-999,0,0.00
2013-10-5,50,38,27,-100,-100,-100,0,0,100,0.00,40.00,0,-999,0,0.00
2013-10-6,61,44,29,-100,-100,-100,0,0,100,0.00,40.00,0,-999,0,0.00
2013-10-7,66,50,37,-100,-100,-100,0,0,100,0.00,40.00,0,-999,0,0.00
2013-10-8,63,51,40,-100,-100,-100,0,0,100,0.00,40.00,0,-999,0,0.00
2013-10-9,57,50,39,-100,-100,-100,0,0,100,0.00,40.00,0,-999,0,0.00
2013-10-10,52,41,31,-100,-100,-100,0,0,100,0.00,40.00,0,-999,0,0.00
2013-10-11,40,34,31,-100,-100,-100,0,0,100,0.00,40.00,0,-999,0,0.00
2013-10-12,50,40,32,-100,-100,-100,0,0,100,0.00,40.00,0,-999,0,0.00
2013-10-13,57,46,40,-100,-100,-100,0,0,100,0.00,40.00,0,-999,0,0.00
2013-10-14,47,42,32,-100,-100,-100,0,0,100,0.00,40.00,0,-999,0,0.00
2013-10-15,46,38,31,-100,-100,-100,0,0,100,0.00,40.00,0,-999,0,0.00
2013-10-16,48,38,29,-100,-100,-100,0,0,100,0.00,40.00,0,-999,0,0.00
2013-10-17,50,37,27,-100,-100,-100,0,0,100,0.00,40.00,0,-999,0,0.00
2013-10-18,50,39,29,-100,-100,-100,0,0,100,0.00,40.00,0,-999,0,0.00
2013-10-19,51,39,29,-100,-100,-100,0,0,100,0.00,40.00,0,-999,0,0.00
2013-10-20,57,42,29,-100,-100,-100,0,0,100,0.00,40.00,0,-999,0,0.00
2013-10-21,54,44,34,-100,-100,-100,0,0,100,0.00,40.00,0,-999,0,0.00
2013-10-22,59,47,36,-100,-100,-100,0,0,100,0.00,40.00,0,-999,0,0.00
2013-10-23,62,46,34,-100,-100,-100,0,0,100,0.00,40.00,0,-999,0,0.00
2013-10-24,63,49,39,-100,-100,-100,0,0,100,0.00,40.00,0,-999,0,0.00
2013-10-25,52,46,43,-100,-100,-100,0,0,100,0.00,40.00,0,-999,0,0.00
2013-10-26,52,42,36,-100,-100,-100,0,0,100,0.00,40.00,0,-999,0,0.00
2013-10-27,55,44,34,-100,-100,-100,0,0,100,0.00,40.00,0,-999,0,0.00
2013-10-28,54,46,39,-100,-100,-100,0,0,100,0.00,40.00,0,-999,0,0.00
2013-10-29,45,42,36,-100,-100,-100,0,0,100,0.00,40.00,0,-999,0,0.00
2013-10-30,36,30,25,-100,-100,-100,0,0,100,0.00,40.00,0,-999,0,0.00
2013-10-31,40,31,23,-100,-100,-100,0,0,100,0.00,40.00,0,-999,0,0.00
2013-11-1,48,36,28,-100,-100,-100,0,0,100,0.00,40.00,0,-999,0,0.00
2013-11-2,56,40,31,-100,-100,-100,0,0,100,0.00,40.00,0,-999,0,0.00
2013-11-3,47,37,32,-100,-100,-100,0,0,100,0.00,40.00,0,-999,0,0.00
2013-11-4,44,37,31,-100,-100,-100,0,0,100,0.00,40.00,0,-999,0,0.00
2013-11-5,42,32,23,-100,-100,-100,0,0,100,0.00,40.00,0,-999,0,0.00
2013-11-6,40,30,19,-100,-100,-100,0,0,100,0.00,40.00,0,-999,0,0.00
2013-11-7,53,37,25,-100,-100,-100,0,0,100,0.00,40.00,0,-999,0,0.00
2013-11-8,54,40,29,-100,-100,-100,0,0,100,0.00,40.00,0,-999,0,0.00
2013-11-9,56,41,31,-100,-100,-100,0,0,100,0.00,40.00,0,-999,0,0.00
2013-11-10,57,41,31,-100,-100,-100,0,0,100,0.00,40.00,0,-999,0,0.00
2013-11-11,57,43,31,-100,-100,-100,0,0,100,0.00,40.00,0,-999,0,0.00
2013-11-12,57,44,34,-100,-100,-100,0,0,100,0.00,40.00,0,-999,0,0.00
2013-11-13,50,41,31,-100,-100,-100,0,0,100,0.00,40.00,0,-999,0,0.00
2013-11-14,50,40,32,-100,-100,-100,0,0,100,0.00,40.00,0,-999,0,0.00
2013-11-15,41,36,28,-100,-100,-100,0,0,100,0.00,40.00,0,-999,0,0.00
2013-11-16,37,34,29,-100,-100,-100,0,0,100,0.00,40.00,0,-999,0,0.00
2013-11-17,47,37,31,-100,-100,-100,0,0,100,0.00,40.00,0,-999,0,0.00
2013-11-18,50,35,28,-100,-100,-100,0,0,100,0.00,40.00,0,-999,0,0.00
2013-11-19,43,34,29,-100,-100,-100,0,0,100,0.00,40.00,0,-999,0,0.00
2013-11-20,32,32,32,-100,-100,-100,0,0,100,0.00,40.00,0,-999,0,0.00
2013-11-21,40,36,32,-100,-100,-100,0,0,100,0.00,40.00,0,-999,0,1.06
2013-11-22,35,35,32,-100,-100,-100,0,0,100,0.00,40.00,0,-999,0,0.00
2013-11-23,40,35,32,-100,-100,-100,0,0,100,0.00,40.00,0,-999,0,0.91
2013-11-26,30,27,24,-100,-100,-100,0,0,100,0.00,40.00,0,-999,0,0.00
2013-11-27,40,27,17,-100,-100,-100,0,0,100,0.00,40.00,0,-999,0,0.00
2013-11-28,48,33,23,-100,-100,-100,0,0,100,0.00,40.00,0,-999,0,0.00
2013-11-29,44,31,23,-100,-100,-100,0,0,100,0.00,40.00,0,-999,0,0.00
2013-11-30,44,32,25,-100,-100,-100,0,0,100,0.00,40.00,0,-999,0,0.00
2013-12-1,34,27,22,-100,-100,-100,0,0,100,0.00,40.00,0,-999,0,0.00
2013-12-2,28,26,24,-100,-100,-100,0,0,100,0.00,40.00,0,-999,0,0.01
2013-12-3,25,23,20,-100,-100,-100,0,0,100,0.00,40.00,0,-999,0,0.00
2013-12-10,25,18,11,-100,-100,-100,0,0,100,0.00,40.00,0,-999,0,0.00
2013-12-11,26,16,10,-100,-100,-100,0,0,100,0.00,40.00,0,-999,0,0.00
2013-12-12,33,22,17,-100,-100,-100,0,0,100,0.00,40.00,0,-999,0,0.00
2013-12-13,34,25,18,-100,-100,-100,0,0,100,0.00,40.00,0,-999,0,59.36
2013-12-14,34,22,15,-100,-100,-100,0,0,100,0.00,40.00,0,-999,0,76.00
2013-12-15,29,21,16,-100,-100,-100,0,0,100,0.00,40.00,0,-999,0,76.00
2013-12-16,31,23,20,-100,-100,-100,0,0,100,0.00,40.00,0,-999,0,7.10
2013-12-17,26,23,21,-100,-100,-100,0,0,100,0.00,40.00,0,-999,0,7.10
2013-12-18,34,32,29,-100,-100,-100,0,0,100,0.00,40.00,0,-999,0,0.00
2013-12-19,34,30,28,-100,-100,-100,0,0,100,0.00,40.00,0,-999,0,0.00
2013-12-20,32,28,20,-100,-100,-100,0,0,100,0.00,40.00,0,-999,0,0.10
2013-12-21,31,20,13,-100,-100,-100,0,0,100,0.00,40.00,0,-999,0,0.10
2013-12-22,31,24,14,-100,-100,-100,0,0,100,0.00,40.00,0,-999,0,0.00
2013-12-23,28,14,8,-100,-100,-100,0,0,100,0.00,40.00,0,-999,0,0.10
2013-12-24,26,18,14,-100,-100,-100,0,0,100,0.00,40.00,0,-999,0,13.70
2013-12-25,39,22,12,-100,-100,-100,0,0,100,0.00,40.00,0,-999,0,13.70
2013-12-26,27,26,25,-100,-100,-100,0,0,100,0.00,40.00,0,-999,0,0.00
2013-12-27,45,30,20,-100,-100,-100,0,0,100,0.00,40.00,0,-999,0,0.10
2013-12-28,34,25,19,-100,-100,-100,0,0,100,0.00,40.00,0,-999,0,4.20
2013-12-29,27,23,20,-100,-100,-100,0,0,100,0.00,40.00,0,-999,0,4.20
2013-12-30,37,36,35,-100,-100,-100,0,0,100,0.00,40.00,0,-999,0,0.00
2013-12-31,41,32,24,-100,-100,-100,0,0,100,0.00,40.00,0,-999,0,0.00
2014-1-1,38,28,22,-100,-100,-100,0,0,100,0.00,40.00,0,-999,0,1.30
2014-1-2,31,22,16,-100,-100,-100,0,0,100,0.00,40.00,0,-999,0,0.10